METAR Data
IDs: Format: Raw Decoded Include TAF

Data at: 0504 UTC 26 May 2022

EGWU 260350Z AUTO 23005KT 9999 NCD 10/09 Q1019